createdAt,value
2022-10-09T06:27:18.785Z,1018.26
2022-10-09T06:28:18.759Z,1018.27
2022-10-09T06:29:18.757Z,1018.27
2022-10-09T06:30:18.735Z,1018.30
2022-10-09T07:16:48.103Z,1018.42
2022-10-09T07:17:47.752Z,1018.40
2022-10-09T07:18:47.741Z,1018.44
2022-10-09T07:19:47.742Z,1018.33
2022-10-09T07:20:47.712Z,1018.34
2022-10-09T07:21:47.853Z,1018.34
2022-10-09T07:22:48.016Z,1018.35
2022-10-09T07:23:47.742Z,1018.30
2022-10-09T07:24:47.709Z,1018.35
2022-10-09T07:25:47.662Z,1018.31
2022-10-09T07:26:47.667Z,1018.32
2022-10-09T07:27:47.649Z,1018.35
2022-10-09T07:28:47.713Z,1018.31
2022-10-09T07:29:47.621Z,1018.27
2022-10-09T07:30:47.618Z,1018.30
2022-10-09T07:31:47.609Z,1018.23
2022-10-09T07:32:47.929Z,1018.23
2022-10-09T07:33:47.591Z,1018.22
2022-10-09T07:34:47.587Z,1018.21
2022-10-09T07:35:47.564Z,1018.24
2022-10-09T07:36:47.533Z,1018.24
2022-10-09T07:37:47.535Z,1018.28
2022-10-09T07:38:47.545Z,1018.22
2022-10-09T07:39:47.512Z,1018.19
2022-10-09T07:40:47.505Z,1018.23
2022-10-09T07:41:47.498Z,1018.20
2022-10-09T07:42:47.694Z,1018.23
2022-10-09T07:43:47.502Z,1018.19
2022-10-09T07:44:47.455Z,1018.22
2022-10-09T07:45:47.490Z,1018.15
2022-10-09T07:46:47.510Z,1018.15
2022-10-09T07:47:47.435Z,1018.16
2022-10-09T07:48:47.454Z,1018.10
2022-10-09T07:49:47.408Z,1018.11
2022-10-09T07:50:47.387Z,1018.08
2022-10-09T07:51:47.386Z,1018.11
2022-10-09T07:52:47.773Z,1018.13
2022-10-09T07:53:47.377Z,1018.10
2022-10-09T07:54:47.347Z,1018.08
2022-10-09T07:55:47.348Z,1018.09
2022-10-09T07:56:47.326Z,1018.10
2022-10-09T07:57:47.328Z,1018.11
2022-10-09T07:58:47.424Z,1018.13
2022-10-09T07:59:47.350Z,1018.07
2022-10-09T08:00:47.277Z,1018.08
2022-10-09T08:01:47.289Z,1018.08
2022-10-09T08:02:47.591Z,1018.11
2022-10-09T08:03:47.259Z,1018.09
2022-10-09T08:04:47.240Z,1018.11
2022-10-09T08:05:47.239Z,1018.08
2022-10-09T08:06:47.423Z,1018.09
2022-10-09T08:07:47.208Z,1018.10
2022-10-09T08:08:47.210Z,1018.10
2022-10-09T08:09:47.188Z,1018.10
2022-10-09T08:10:47.171Z,1018.06
2022-10-09T08:11:47.169Z,1018.14
2022-10-09T08:12:47.496Z,1018.19
2022-10-09T08:13:47.158Z,1018.17
2022-10-09T08:14:48.069Z,1018.17
2022-10-09T08:15:47.203Z,1018.08
2022-10-09T08:16:47.379Z,1018.11
2022-10-09T08:17:47.103Z,1018.09
2022-10-09T08:18:47.761Z,1018.09
2022-10-09T08:19:47.101Z,1018.07
2022-10-09T08:20:47.072Z,1018.07
2022-10-09T08:21:47.052Z,1018.02
2022-10-09T08:22:47.433Z,1018.03
2022-10-09T08:23:47.053Z,1018.03
2022-10-09T08:24:47.163Z,1018.05
2022-10-09T08:25:47.011Z,1018.04
2022-10-09T08:26:47.006Z,1018.03
2022-10-09T08:27:47.002Z,1018.01
2022-10-09T08:28:47.025Z,1018.02
2022-10-09T08:29:46.974Z,1018.00
2022-10-09T08:30:46.999Z,1017.99
2022-10-09T08:31:46.974Z,1018.00
2022-10-09T08:32:47.251Z,1017.96
2022-10-09T08:33:46.924Z,1017.92
2022-10-09T08:34:46.914Z,1017.91
2022-10-09T08:35:46.904Z,1017.90
2022-10-09T08:36:46.883Z,1017.92
2022-10-09T08:37:46.911Z,1017.87
2022-10-09T08:38:48.185Z,1017.85
2022-10-09T08:39:46.854Z,1017.87
2022-10-09T08:40:46.891Z,1017.84
2022-10-09T08:41:46.834Z,1017.85
2022-10-09T08:42:47.132Z,1017.86
2022-10-09T08:43:46.833Z,1017.88
2022-10-09T08:44:46.814Z,1017.88
2022-10-09T08:45:46.784Z,1017.91
2022-10-09T08:46:46.834Z,1017.86
2022-10-09T08:47:46.796Z,1017.83
2022-10-09T08:48:46.764Z,1017.77
2022-10-09T08:49:46.844Z,1017.80
2022-10-09T08:50:46.745Z,1017.77
2022-10-09T08:51:46.716Z,1017.77
2022-10-09T08:52:49.875Z,1017.78
2022-10-09T08:53:46.708Z,1017.79
2022-10-09T08:54:46.699Z,1017.79
2022-10-09T08:55:46.691Z,1017.78
2022-10-09T08:56:46.681Z,1017.72
2022-10-09T08:57:46.698Z,1017.72
2022-10-09T08:58:46.658Z,1017.73
2022-10-09T08:59:46.647Z,1017.73
2022-10-09T09:00:46.637Z,1017.76
2022-10-09T09:01:46.676Z,1017.74
2022-10-09T09:02:47.068Z,1017.72
2022-10-09T09:03:46.603Z,1017.72
2022-10-09T09:04:48.237Z,1017.67
2022-10-09T09:05:46.577Z,1017.68
2022-10-09T09:06:46.565Z,1017.66
2022-10-09T09:07:46.578Z,1017.59
2022-10-09T09:08:46.571Z,1017.56
2022-10-09T09:09:46.529Z,1017.57
2022-10-09T09:10:46.520Z,1017.58
2022-10-09T09:11:46.500Z,1017.55
2022-10-09T09:12:46.973Z,1017.55
2022-10-09T09:13:46.482Z,1017.46
2022-10-09T09:14:46.472Z,1017.48
2022-10-09T09:15:46.522Z,1017.45
2022-10-09T09:16:46.484Z,1017.48
2022-10-09T09:17:46.470Z,1017.50
2022-10-09T09:18:46.429Z,1017.47
2022-10-09T09:19:46.411Z,1017.47
2022-10-09T09:20:46.410Z,1017.45
2022-10-09T09:21:46.449Z,1017.45
2022-10-09T09:22:46.792Z,1017.45
2022-10-09T09:23:46.383Z,1017.43
2022-10-09T09:24:46.363Z,1017.45
2022-10-09T09:25:46.352Z,1017.46
2022-10-09T09:26:46.352Z,1017.44
2022-10-09T09:27:46.333Z,1017.45
2022-10-09T09:28:46.401Z,1017.45
2022-10-09T09:29:46.317Z,1017.45
2022-10-09T09:30:46.296Z,1017.47
2022-10-09T09:31:46.392Z,1017.43
2022-10-09T09:32:47.324Z,1017.45
2022-10-09T09:33:46.364Z,1017.46
2022-10-09T09:34:46.255Z,1017.47
2022-10-09T09:35:46.235Z,1017.47
2022-10-09T09:36:46.225Z,1017.45
2022-10-09T09:37:46.236Z,1017.43
2022-10-09T09:39:24.952Z,1017.43
2022-10-09T09:40:47.537Z,1017.39
2022-10-09T09:41:46.179Z,1017.39
2022-10-09T09:42:46.430Z,1017.38
2022-10-09T09:43:46.152Z,1017.43
2022-10-09T09:44:46.140Z,1017.31
2022-10-09T09:45:46.123Z,1017.34
2022-10-09T09:46:46.207Z,1017.31
2022-10-09T09:47:46.275Z,1017.26
2022-10-09T09:48:46.110Z,1017.28
2022-10-09T09:49:46.101Z,1017.27
2022-10-09T09:50:52.922Z,1017.30
2022-10-09T09:51:47.065Z,1017.29
2022-10-09T09:52:46.074Z,1017.21
2022-10-09T09:53:46.044Z,1017.19
2022-10-09T09:54:46.064Z,1017.19
2022-10-09T09:55:46.018Z,1017.13
2022-10-09T09:57:47.187Z,1017.08
2022-10-09T09:58:45.997Z,1017.06
2022-10-09T09:59:45.979Z,1017.07
2022-10-09T10:00:45.998Z,1016.96
2022-10-09T10:01:46.004Z,1016.99
2022-10-09T10:02:46.039Z,1016.92
2022-10-09T10:03:45.939Z,1016.89
2022-10-09T10:04:45.928Z,1016.87
2022-10-09T10:05:45.909Z,1016.83
2022-10-09T10:06:45.910Z,1016.84
2022-10-09T10:07:45.900Z,1016.84
2022-10-09T10:08:45.883Z,1016.81
2022-10-09T10:09:45.872Z,1016.83
2022-10-09T10:10:45.863Z,1016.83
2022-10-09T10:11:45.889Z,1016.84
2022-10-09T10:12:46.130Z,1016.78
2022-10-09T10:13:45.838Z,1016.67
2022-10-09T10:14:45.829Z,1016.76
2022-10-09T10:15:45.870Z,1016.69
2022-10-09T10:16:45.825Z,1016.67
2022-10-09T10:17:45.846Z,1016.70
2022-10-09T10:18:45.807Z,1016.67
2022-10-09T10:19:45.777Z,1016.60
2022-10-09T10:20:45.766Z,1016.62
2022-10-09T10:21:45.749Z,1016.65
2022-10-09T10:22:45.906Z,1016.62
2022-10-09T10:23:45.767Z,1016.62
2022-10-09T10:24:45.742Z,1016.56
2022-10-09T10:25:45.785Z,1016.53
2022-10-09T10:26:45.700Z,1016.52
2022-10-09T10:27:45.702Z,1016.52
2022-10-09T10:28:45.743Z,1016.50
2022-10-09T10:29:45.675Z,1016.53
2022-10-09T10:30:45.681Z,1016.50
2022-10-09T10:31:45.709Z,1016.46
2022-10-09T10:32:45.676Z,1016.40
2022-10-09T10:33:45.848Z,1016.43
2022-10-09T10:34:45.665Z,1016.52
2022-10-09T10:35:45.615Z,1016.44
2022-10-09T10:36:45.765Z,1016.44
2022-10-09T10:37:45.622Z,1016.37
2022-10-09T10:38:45.667Z,1016.36
2022-10-09T10:39:45.598Z,1016.38
2022-10-09T10:40:45.678Z,1016.37
2022-10-09T10:41:45.567Z,1016.28
2022-10-09T10:42:45.548Z,1016.28
2022-10-09T10:43:45.628Z,1016.22
2022-10-09T10:44:45.583Z,1016.19
2022-10-09T10:45:45.513Z,1016.18
2022-10-09T10:46:45.539Z,1016.20
2022-10-09T10:47:45.529Z,1016.13
2022-10-09T10:48:45.495Z,1016.13
2022-10-09T10:49:45.523Z,1016.08
2022-10-09T10:50:45.465Z,1016.04
2022-10-09T10:51:45.445Z,1016.07
2022-10-09T10:52:45.443Z,1016.07
2022-10-09T10:53:45.454Z,1016.07
2022-10-09T10:54:45.423Z,1016.04
2022-10-09T10:55:45.417Z,1016.08
2022-10-09T10:56:45.396Z,1016.00
2022-10-09T10:57:45.400Z,1016.01
2022-10-09T10:58:45.378Z,1015.99
2022-10-09T10:59:45.380Z,1016.01
2022-10-09T11:00:45.576Z,1015.95
2022-10-09T11:01:45.358Z,1015.95
2022-10-09T11:02:45.410Z,1015.92
2022-10-09T11:03:45.369Z,1015.91
2022-10-09T11:04:45.319Z,1015.89
2022-10-09T11:05:45.312Z,1015.83
2022-10-09T11:06:45.311Z,1015.82
2022-10-09T11:07:45.311Z,1015.84
2022-10-09T11:08:45.295Z,1015.79
2022-10-09T11:09:45.271Z,1015.76
2022-10-09T11:10:45.263Z,1015.75
2022-10-09T11:11:45.258Z,1015.75
2022-10-09T11:12:48.726Z,1015.73
2022-10-09T11:13:45.411Z,1015.71
2022-10-09T11:14:45.236Z,1015.69
2022-10-09T11:15:45.238Z,1015.63
2022-10-09T11:16:45.288Z,1015.69
2022-10-09T11:17:45.301Z,1015.66
2022-10-09T11:18:45.177Z,1015.69
2022-10-09T11:19:45.714Z,1015.63
2022-10-09T11:20:45.162Z,1015.63
2022-10-09T11:21:45.160Z,1015.59
2022-10-09T11:22:45.152Z,1015.55
2022-10-09T11:23:45.140Z,1015.57
2022-10-09T11:24:45.121Z,1015.55
2022-10-09T11:25:45.124Z,1015.55
2022-10-09T11:26:45.168Z,1015.48
2022-10-09T11:27:45.154Z,1015.46
2022-10-09T11:28:45.158Z,1015.46
2022-10-09T11:29:45.094Z,1015.44
2022-10-09T11:30:45.078Z,1015.42
2022-10-09T11:31:45.100Z,1015.37
2022-10-09T11:32:45.102Z,1015.39
2022-10-09T11:33:45.052Z,1015.38
2022-10-09T11:34:45.028Z,1015.31
2022-10-09T11:35:45.027Z,1015.31
2022-10-09T11:36:44.997Z,1015.31
2022-10-09T11:37:45.026Z,1015.33
2022-10-09T11:38:44.979Z,1015.26
2022-10-09T11:39:44.970Z,1015.32
2022-10-09T11:40:44.960Z,1015.29
2022-10-09T11:41:44.990Z,1015.25
2022-10-09T11:42:44.951Z,1015.22
2022-10-09T11:43:44.959Z,1015.20
2022-10-09T11:44:44.931Z,1015.18
2022-10-09T11:45:44.954Z,1015.17
2022-10-09T11:46:44.932Z,1015.14
2022-10-09T11:47:44.914Z,1015.14
2022-10-09T11:48:44.884Z,1015.14
2022-10-09T11:49:44.904Z,1015.08
2022-10-09T11:50:44.883Z,1015.05
2022-10-09T11:51:44.875Z,1015.01
2022-10-09T11:52:44.865Z,1014.96
2022-10-09T11:53:44.836Z,1014.98
2022-10-09T11:54:44.818Z,1015.00
2022-10-09T11:55:44.818Z,1014.94
2022-10-09T11:56:44.809Z,1014.96
2022-10-09T11:57:44.802Z,1014.93
2022-10-09T11:58:44.779Z,1014.93
2022-10-09T11:59:44.789Z,1014.89
2022-10-09T12:00:44.761Z,1014.95
2022-10-09T12:01:44.868Z,1014.92
2022-10-09T12:02:44.812Z,1014.83
2022-10-09T12:03:44.737Z,1014.84
2022-10-09T12:04:56.169Z,1014.80
2022-10-09T12:05:45.744Z,1014.82
2022-10-09T12:06:44.799Z,1014.82
2022-10-09T12:07:44.726Z,1014.81
2022-10-09T12:08:44.686Z,1014.76
2022-10-09T12:09:44.685Z,1014.80
2022-10-09T12:10:44.664Z,1014.76
2022-10-09T12:11:44.656Z,1014.75
2022-10-09T12:12:44.697Z,1014.65
2022-10-09T12:13:44.638Z,1014.64
2022-10-09T12:14:44.709Z,1014.62
2022-10-09T12:15:44.609Z,1014.59
2022-10-09T12:16:44.685Z,1014.56
2022-10-09T12:17:44.640Z,1014.54
2022-10-09T12:18:44.588Z,1014.54
2022-10-09T12:19:44.591Z,1014.56
2022-10-09T12:20:44.561Z,1014.53
2022-10-09T12:21:44.595Z,1014.48
2022-10-09T12:22:56.363Z,1014.47
2022-10-09T12:23:45.532Z,1014.49
2022-10-09T12:24:44.542Z,1014.40
2022-10-09T12:25:44.517Z,1014.39
2022-10-09T12:26:44.514Z,1014.37
2022-10-09T12:27:44.531Z,1014.41
2022-10-09T12:28:44.551Z,1014.34
2022-10-09T12:29:44.478Z,1014.36
2022-10-09T12:30:47.671Z,1014.31
2022-10-09T12:31:44.484Z,1014.37
2022-10-09T12:32:44.447Z,1014.35
2022-10-09T12:33:44.427Z,1014.34
2022-10-09T12:34:44.497Z,1014.27
2022-10-09T12:35:44.432Z,1014.30
2022-10-09T12:36:44.397Z,1014.26
2022-10-09T12:37:44.398Z,1014.31
2022-10-09T12:38:44.382Z,1014.31
2022-10-09T12:39:44.414Z,1014.17
2022-10-09T12:40:44.362Z,1014.26
2022-10-09T12:41:44.343Z,1014.25
2022-10-09T12:42:44.361Z,1014.24
2022-10-09T12:43:44.333Z,1014.26
2022-10-09T12:44:44.389Z,1014.27
2022-10-09T12:45:44.346Z,1014.24
2022-10-09T12:46:44.296Z,1014.24
2022-10-09T12:47:44.295Z,1014.18
2022-10-09T12:48:44.290Z,1014.16
2022-10-09T12:49:44.265Z,1014.16
2022-10-09T12:50:44.259Z,1014.14
2022-10-09T12:51:44.267Z,1014.15
2022-10-09T12:52:44.248Z,1014.14
2022-10-09T12:53:44.227Z,1014.16
2022-10-09T12:54:44.248Z,1014.08
2022-10-09T12:55:44.200Z,1014.02
2022-10-09T12:56:44.188Z,1014.02
2022-10-09T12:57:44.182Z,1013.99
2022-10-09T12:58:44.178Z,1014.00
2022-10-09T12:59:44.194Z,1013.99
2022-10-09T13:00:44.140Z,1013.92
2022-10-09T13:01:44.222Z,1013.95
2022-10-09T13:02:44.254Z,1013.94
2022-10-09T13:03:44.102Z,1013.91
2022-10-09T13:04:44.163Z,1013.98
2022-10-09T13:05:44.092Z,1013.98
2022-10-09T13:06:44.073Z,1013.96
2022-10-09T13:07:48.320Z,1013.94
2022-10-09T13:08:44.064Z,1013.98
2022-10-09T13:09:44.045Z,1013.93
2022-10-09T13:10:44.035Z,1013.87
2022-10-09T13:11:44.026Z,1013.87
2022-10-09T13:12:44.017Z,1013.90
2022-10-09T13:13:43.997Z,1013.87
2022-10-09T13:14:44.180Z,1013.85
2022-10-09T13:15:43.977Z,1013.87
2022-10-09T13:16:44.065Z,1013.96
2022-10-09T13:17:43.969Z,1013.91
2022-10-09T13:18:43.943Z,1013.89
2022-10-09T13:19:43.951Z,1013.91
2022-10-09T13:20:43.932Z,1013.80
2022-10-09T13:21:43.919Z,1013.82
2022-10-09T13:22:43.931Z,1013.74
2022-10-09T13:23:43.904Z,1013.79
2022-10-09T13:24:43.883Z,1013.76
2022-10-09T13:25:43.882Z,1013.74
2022-10-09T13:26:43.870Z,1013.68
2022-10-09T13:27:43.894Z,1013.75
2022-10-09T13:28:43.913Z,1013.68
2022-10-09T13:29:43.845Z,1013.61
2022-10-09T13:30:43.861Z,1013.52
2022-10-09T13:31:43.831Z,1013.50
2022-10-09T13:32:43.818Z,1013.53
2022-10-09T13:33:43.787Z,1013.45
2022-10-09T13:34:43.850Z,1013.40
2022-10-09T13:35:43.807Z,1013.37
2022-10-09T13:36:43.767Z,1013.40
2022-10-09T13:37:43.828Z,1013.43
2022-10-09T13:38:43.730Z,1013.29
2022-10-09T13:39:43.722Z,1013.29
2022-10-09T13:40:43.710Z,1013.36
2022-10-09T13:41:43.703Z,1013.39
2022-10-09T13:42:43.699Z,1013.33
2022-10-09T13:43:43.682Z,1013.28
2022-10-09T13:44:43.672Z,1013.31
2022-10-09T13:45:43.702Z,1013.31
2022-10-09T13:46:43.653Z,1013.24
2022-10-09T13:47:43.654Z,1013.21
2022-10-09T13:48:43.623Z,1013.17
2022-10-09T13:49:43.626Z,1013.15
2022-10-09T13:50:43.605Z,1013.10
2022-10-09T13:51:43.605Z,1013.11
2022-10-09T13:52:43.606Z,1013.07
2022-10-09T13:53:43.576Z,1013.08
2022-10-09T13:54:43.563Z,1013.27
2022-10-09T13:55:43.558Z,1013.12
2022-10-09T13:56:43.555Z,1013.13
2022-10-09T13:57:43.639Z,1013.02
2022-10-09T13:58:43.549Z,1013.04
2022-10-09T13:59:43.526Z,1013.00
2022-10-09T14:00:43.498Z,1013.00
2022-10-09T14:01:43.562Z,1012.95
2022-10-09T14:02:43.491Z,1012.92
2022-10-09T14:03:43.471Z,1012.91
2022-10-09T14:04:43.489Z,1012.85
2022-10-09T14:05:43.505Z,1012.85
2022-10-09T14:06:43.431Z,1012.86
2022-10-09T14:07:43.442Z,1012.88
2022-10-09T14:08:43.434Z,1012.79
2022-10-09T14:09:43.429Z,1012.82
2022-10-09T14:10:43.471Z,1012.83
2022-10-09T14:11:43.392Z,1012.75
2022-10-09T14:12:43.456Z,1012.78
2022-10-09T14:13:43.365Z,1012.73
2022-10-09T14:14:43.462Z,1012.74
2022-10-09T14:15:43.335Z,1012.82
2022-10-09T14:16:43.384Z,1012.71
2022-10-09T14:17:43.349Z,1012.72
2022-10-09T14:18:43.378Z,1012.67
2022-10-09T14:19:43.302Z,1012.64
2022-10-09T14:20:43.299Z,1012.59
2022-10-09T14:21:43.270Z,1012.59
2022-10-09T14:22:43.277Z,1012.60
2022-10-09T14:23:43.268Z,1012.63
2022-10-09T14:24:43.241Z,1012.54
2022-10-09T14:25:43.240Z,1012.56
2022-10-09T14:26:43.256Z,1012.55
2022-10-09T14:27:44.158Z,1012.50
2022-10-09T14:28:43.224Z,1012.45
2022-10-09T14:29:43.190Z,1012.43
2022-10-09T14:30:43.172Z,1012.49
2022-10-09T14:31:43.163Z,1012.39
2022-10-09T14:32:43.269Z,1012.43
2022-10-09T14:33:43.144Z,1012.43
2022-10-09T14:34:43.123Z,1012.36
2022-10-09T14:35:43.124Z,1012.36
2022-10-09T14:36:43.117Z,1012.32
2022-10-09T14:37:43.120Z,1012.34
2022-10-09T14:38:43.085Z,1012.31
2022-10-09T14:39:43.078Z,1012.25
2022-10-09T14:40:43.067Z,1012.22
2022-10-09T14:41:43.067Z,1012.21
2022-10-09T14:42:43.104Z,1012.22
2022-10-09T14:43:43.048Z,1012.21
2022-10-09T14:44:43.027Z,1012.20
2022-10-09T14:45:43.009Z,1012.25
2022-10-09T14:46:42.997Z,1012.19
2022-10-09T14:47:43.008Z,1012.24
2022-10-09T14:48:42.978Z,1012.23
2022-10-09T14:49:42.969Z,1012.19
2022-10-09T14:50:42.990Z,1012.20
2022-10-09T14:51:42.941Z,1012.20
2022-10-09T14:52:42.969Z,1012.09
2022-10-09T14:53:42.931Z,1012.13
2022-10-09T14:54:42.910Z,1012.07
2022-10-09T14:55:42.905Z,1012.05
2022-10-09T14:56:42.893Z,1012.14
2022-10-09T14:57:42.891Z,1012.05
2022-10-09T14:58:42.905Z,1012.03
2022-10-09T14:59:42.863Z,1011.98
2022-10-09T15:00:42.993Z,1011.96
2022-10-09T15:01:42.846Z,1011.95
2022-10-09T15:03:43.030Z,1011.94
2022-10-09T15:04:42.841Z,1011.93
2022-10-09T15:05:42.794Z,1011.92
2022-10-09T15:06:42.785Z,1011.89
2022-10-09T15:07:42.785Z,1011.89
2022-10-09T15:08:42.755Z,1011.86
2022-10-09T15:09:42.745Z,1011.84
2022-10-09T15:10:42.737Z,1011.87
2022-10-09T15:11:42.725Z,1011.80
2022-10-09T15:12:42.756Z,1011.86
2022-10-09T15:13:42.707Z,1011.77
2022-10-09T15:14:42.689Z,1011.81
2022-10-09T15:15:42.688Z,1011.74
2022-10-09T15:16:42.688Z,1011.72
2022-10-09T15:17:42.679Z,1011.72
2022-10-09T15:18:42.648Z,1011.71
2022-10-09T15:19:42.641Z,1011.65
2022-10-09T15:20:42.810Z,1011.68
2022-10-09T15:21:42.619Z,1011.64
2022-10-09T15:22:42.623Z,1011.63
2022-10-09T15:23:42.603Z,1011.63
2022-10-09T15:24:42.584Z,1011.62
2022-10-09T15:25:42.591Z,1011.64
2022-10-09T15:26:42.563Z,1011.61
2022-10-09T15:27:42.561Z,1011.60
2022-10-09T15:28:42.567Z,1011.57
2022-10-09T15:29:42.547Z,1011.59
2022-10-09T15:30:42.512Z,1011.53
2022-10-09T15:31:42.563Z,1011.54
2022-10-09T15:32:42.505Z,1011.53
2022-10-09T15:33:42.484Z,1011.50
2022-10-09T15:34:42.495Z,1011.53
2022-10-09T15:35:42.463Z,1011.47
2022-10-09T15:36:42.445Z,1011.44
2022-10-09T15:38:42.458Z,1011.47
2022-10-09T15:39:42.415Z,1011.43
2022-10-09T15:40:42.412Z,1011.44
2022-10-09T15:41:42.410Z,1011.41
2022-10-09T15:42:42.387Z,1011.42
2022-10-09T15:43:42.378Z,1011.44
2022-10-09T15:44:42.366Z,1011.38
2022-10-09T15:45:42.356Z,1011.37
2022-10-09T15:46:42.346Z,1011.40
2022-10-09T15:47:50.789Z,1011.40
2022-10-09T15:48:43.316Z,1011.37
2022-10-09T15:49:42.316Z,1011.36
2022-10-09T15:50:42.298Z,1011.38
2022-10-09T15:51:42.289Z,1011.41
2022-10-09T15:52:42.289Z,1011.38
2022-10-09T15:53:42.259Z,1011.38
2022-10-09T15:54:42.257Z,1011.33
2022-10-09T15:55:42.250Z,1011.37
2022-10-09T15:56:42.246Z,1011.32
2022-10-09T15:57:42.240Z,1011.30
2022-10-09T15:58:42.202Z,1011.28
2022-10-09T15:59:42.200Z,1011.32
2022-10-09T16:00:42.258Z,1011.31
2022-10-09T16:01:42.210Z,1011.31
2022-10-09T16:02:42.173Z,1011.26
2022-10-09T16:03:42.159Z,1011.25
2022-10-09T16:04:42.143Z,1011.25
2022-10-09T16:05:42.142Z,1011.22
2022-10-09T16:06:42.134Z,1011.20
2022-10-09T16:07:42.124Z,1011.26
2022-10-09T16:08:42.093Z,1011.24
2022-10-09T16:09:42.084Z,1011.24
2022-10-09T16:10:46.314Z,1011.21
2022-10-09T16:11:43.066Z,1011.21
2022-10-09T16:12:42.055Z,1011.22
2022-10-09T16:13:42.047Z,1011.21
2022-10-09T16:14:42.036Z,1011.22
2022-10-09T16:15:42.016Z,1011.22
2022-10-09T16:16:42.025Z,1011.18
2022-10-09T16:17:42.026Z,1011.20
2022-10-09T16:18:41.986Z,1011.22
2022-10-09T16:19:41.992Z,1011.20
2022-10-09T16:20:41.998Z,1011.22
2022-10-09T16:21:42.098Z,1011.23
2022-10-09T16:22:41.956Z,1011.23
2022-10-09T16:23:42.167Z,1011.22
2022-10-09T16:24:41.925Z,1011.20
2022-10-09T16:25:41.902Z,1011.19
2022-10-09T16:26:42.122Z,1011.21
2022-10-09T16:27:41.889Z,1011.22
2022-10-09T16:28:41.985Z,1011.18
2022-10-09T16:29:41.869Z,1011.18
2022-10-09T16:30:41.867Z,1011.16
2022-10-09T16:31:41.891Z,1011.17
2022-10-09T16:32:41.832Z,1011.20
2022-10-09T16:33:41.930Z,1011.22
2022-10-09T16:34:41.811Z,1011.21
2022-10-09T16:35:41.798Z,1011.18
2022-10-09T16:36:41.781Z,1011.19
2022-10-09T16:37:41.855Z,1011.18
2022-10-09T16:38:41.772Z,1011.14
2022-10-09T16:39:41.751Z,1011.20
2022-10-09T16:41:01.708Z,1011.16
2022-10-09T16:41:42.734Z,1011.16
2022-10-09T16:42:41.731Z,1011.13
2022-10-09T16:43:41.705Z,1011.16
2022-10-09T16:44:41.705Z,1011.15
2022-10-09T16:45:41.685Z,1011.23
2022-10-09T16:46:41.681Z,1011.23
2022-10-09T16:47:43.023Z,1011.22
2022-10-09T16:48:41.674Z,1011.24
2022-10-09T16:49:41.644Z,1011.22
2022-10-09T16:50:41.634Z,1011.22
2022-10-09T16:51:41.625Z,1011.18
2022-10-09T16:52:41.625Z,1011.17
2022-10-09T16:53:41.644Z,1011.18
2022-10-09T16:54:41.690Z,1011.18
2022-10-09T16:55:41.575Z,1011.19
2022-10-09T16:56:41.595Z,1011.20
2022-10-09T16:57:41.654Z,1011.19
2022-10-09T16:58:41.545Z,1011.19
2022-10-09T16:59:41.547Z,1011.17
2022-10-09T17:00:41.594Z,1011.16
2022-10-09T17:01:41.547Z,1011.13
2022-10-09T17:02:41.556Z,1011.20
2022-10-09T17:03:41.488Z,1011.19
2022-10-09T17:04:41.487Z,1011.17
2022-10-09T17:05:41.498Z,1011.16
2022-10-09T17:06:41.448Z,1011.17
2022-10-09T17:07:41.472Z,1011.16
2022-10-09T17:08:41.444Z,1011.16
2022-10-09T17:09:41.438Z,1011.19
2022-10-09T17:10:41.579Z,1011.19
2022-10-09T17:11:41.442Z,1011.20
2022-10-09T17:12:41.410Z,1011.16
2022-10-09T17:13:41.381Z,1011.17
2022-10-09T17:14:41.361Z,1011.19
2022-10-09T17:15:41.370Z,1011.23
2022-10-09T17:16:41.347Z,1011.22
2022-10-09T17:17:41.349Z,1011.26
2022-10-09T17:18:41.324Z,1011.27
2022-10-09T17:19:41.359Z,1011.24
2022-10-09T17:20:41.293Z,1011.28
2022-10-09T17:21:41.292Z,1011.25
2022-10-09T17:22:41.302Z,1011.27
2022-10-09T17:23:41.282Z,1011.26
2022-10-09T17:24:41.252Z,1011.23
2022-10-09T17:25:41.252Z,1011.21
2022-10-09T17:26:41.233Z,1011.23
2022-10-09T17:27:41.233Z,1011.21
2022-10-09T17:28:41.249Z,1011.19
2022-10-09T17:29:41.208Z,1011.21
2022-10-09T17:30:41.221Z,1011.20
2022-10-09T17:31:41.184Z,1011.18
2022-10-09T17:32:41.175Z,1011.20
2022-10-09T17:33:41.161Z,1011.22
2022-10-09T17:34:41.144Z,1011.23
2022-10-09T17:35:41.146Z,1011.19
2022-10-09T17:36:41.115Z,1011.21
2022-10-09T17:37:41.125Z,1011.21
2022-10-09T17:38:41.096Z,1011.19
2022-10-09T17:39:44.179Z,1011.17
2022-10-09T17:40:41.076Z,1011.20
2022-10-09T17:41:41.067Z,1011.19
2022-10-09T17:42:41.071Z,1011.18
2022-10-09T17:43:41.050Z,1011.23
2022-10-09T17:44:41.040Z,1011.19
2022-10-09T17:45:41.032Z,1011.15
2022-10-09T17:46:41.021Z,1011.17
2022-10-09T17:47:41.017Z,1011.17
2022-10-09T17:48:40.989Z,1011.17
2022-10-09T17:49:40.978Z,1011.16
2022-10-09T17:50:40.959Z,1011.20
2022-10-09T17:51:40.972Z,1011.22
2022-10-09T17:52:41.161Z,1011.17
2022-10-09T17:53:40.938Z,1011.18
2022-10-09T17:54:40.919Z,1011.18
2022-10-09T17:55:40.919Z,1011.17
2022-10-09T17:56:40.901Z,1011.15
2022-10-09T17:57:40.911Z,1011.13
2022-10-09T17:58:40.881Z,1011.17
2022-10-09T17:59:40.870Z,1011.18
2022-10-09T18:00:41.055Z,1011.16
2022-10-09T18:01:40.868Z,1011.13
2022-10-09T18:02:40.919Z,1011.14
2022-10-09T18:03:40.834Z,1011.14
2022-10-09T18:04:40.819Z,1011.14
2022-10-09T18:05:41.403Z,1011.13
2022-10-09T18:06:40.802Z,1011.13
2022-10-09T18:07:40.791Z,1011.10
2022-10-09T18:08:40.769Z,1011.08
2022-10-09T18:09:40.762Z,1011.08
2022-10-09T18:10:40.841Z,1011.09
2022-10-09T18:11:40.753Z,1011.07
2022-10-09T18:12:40.734Z,1011.07
2022-10-09T18:13:40.714Z,1011.07
2022-10-09T18:14:40.705Z,1011.02
2022-10-09T18:15:40.693Z,1010.99
2022-10-09T18:16:40.676Z,1010.99
2022-10-09T18:17:40.684Z,1011.03
2022-10-09T18:18:40.654Z,1010.99
2022-10-09T18:19:40.652Z,1010.92
2022-10-09T18:20:40.643Z,1011.00
2022-10-09T18:21:40.626Z,1010.97
2022-10-09T18:22:40.631Z,1010.96
2022-10-09T18:23:40.605Z,1010.96
2022-10-09T18:24:40.597Z,1010.95
2022-10-09T18:25:40.586Z,1010.93
2022-10-09T18:26:40.565Z,1010.93
2022-10-09T18:27:40.566Z,1010.89
2022-10-09T18:28:41.844Z,1010.89
2022-10-09T18:29:40.537Z,1010.87
2022-10-09T18:30:40.524Z,1010.89
2022-10-09T18:31:40.532Z,1010.89
2022-10-09T18:32:40.519Z,1010.88
2022-10-09T18:33:40.486Z,1010.86
2022-10-09T18:34:43.140Z,1010.86
2022-10-09T18:35:41.520Z,1010.87
2022-10-09T18:36:40.458Z,1010.88
2022-10-09T18:37:40.468Z,1010.90
2022-10-09T18:38:40.441Z,1010.83
2022-10-09T18:39:40.430Z,1010.83
2022-10-09T18:40:45.190Z,1010.88
2022-10-09T18:41:41.400Z,1010.83
2022-10-09T18:42:40.399Z,1010.85
2022-10-09T18:43:40.390Z,1010.82
2022-10-09T18:44:40.380Z,1010.86
2022-10-09T18:45:40.360Z,1010.82
2022-10-09T18:46:40.350Z,1010.82
2022-10-09T18:47:40.367Z,1010.82
2022-10-09T18:48:40.331Z,1010.80
2022-10-09T18:49:40.441Z,1010.79
2022-10-09T18:50:40.535Z,1010.79
2022-10-09T18:51:40.299Z,1010.75
2022-10-09T18:52:40.297Z,1010.76
2022-10-09T18:53:40.287Z,1010.69
2022-10-09T18:54:40.251Z,1010.69
2022-10-09T18:55:40.252Z,1010.69
2022-10-09T18:56:40.241Z,1010.63
2022-10-09T18:57:40.274Z,1010.67
2022-10-09T18:58:40.213Z,1010.66
2022-10-09T18:59:40.212Z,1010.69
2022-10-09T19:00:40.257Z,1010.72
2022-10-09T19:01:40.224Z,1010.69
2022-10-09T19:03:40.164Z,1010.72
2022-10-09T19:04:40.152Z,1010.64
2022-10-09T19:05:40.154Z,1010.68
2022-10-09T19:06:40.124Z,1010.65
2022-10-09T19:07:40.131Z,1010.66
2022-10-09T19:08:40.105Z,1010.71
2022-10-09T19:09:40.103Z,1010.69
2022-10-09T19:10:40.083Z,1010.69
2022-10-09T19:11:40.076Z,1010.67
2022-10-09T19:12:40.065Z,1010.66
2022-10-09T19:13:40.055Z,1010.61
2022-10-09T19:14:40.034Z,1010.61
2022-10-09T19:15:40.045Z,1010.60
2022-10-09T19:16:40.025Z,1010.62
2022-10-09T19:17:40.028Z,1010.61
2022-10-09T19:18:40.008Z,1010.61
2022-10-09T19:19:39.989Z,1010.57
2022-10-09T19:20:39.987Z,1010.54
2022-10-09T19:21:39.966Z,1010.57
2022-10-09T19:22:39.975Z,1010.59